Time;durP1;ratioP1;P1;durP2;ratioP2;P2;SDS_P1;SDS_P2;PMS_P1;PMS_P2;Temp;Humidity;BMP_temperature;BMP_pressure;BME280_temperature;BME280_humidity;BME280_pressure;Samples;Min_cycle;Max_cycle;Signal;HPM_P1;HPM_P2
2021/05/20 00:02:22;;;;;;;11.82;8.60;;;;;;;10.84;100.00;101134.44;5083407;28;20031;-74
2021/05/20 00:04:48;;;;;;;11.25;7.38;;;;;;;10.78;100.00;101135.81;5090962;28;20162;-73
2021/05/20 00:07:14;;;;;;;11.13;7.63;;;;;;;10.84;100.00;101128.25;5088587;28;20073;-73
2021/05/20 00:09:41;;;;;;;13.40;7.30;;;;;;;10.73;100.00;101128.00;5084589;28;20085;-73
2021/05/20 00:12:07;;;;;;;13.18;7.88;;;;;;;10.68;100.00;101132.84;5088725;28;20035;-73
2021/05/20 00:14:32;;;;;;;12.07;7.55;;;;;;;10.68;100.00;101128.22;5094255;28;20028;-73
2021/05/20 00:16:57;;;;;;;11.73;7.30;;;;;;;10.69;100.00;101129.00;5095225;28;20112;-73
2021/05/20 00:19:23;;;;;;;13.15;7.13;;;;;;;10.61;100.00;101125.34;5093558;28;20032;-73
2021/05/20 00:21:49;;;;;;;12.25;7.45;;;;;;;10.71;100.00;101121.38;5103156;28;20036;-73
2021/05/20 00:24:15;;;;;;;10.20;6.63;;;;;;;10.76;100.00;101124.59;5095279;28;20035;-73
2021/05/20 00:26:40;;;;;;;9.95;6.93;;;;;;;10.73;100.00;101125.28;5090262;28;20039;-73
2021/05/20 00:29:06;;;;;;;14.15;7.40;;;;;;;10.62;100.00;101132.31;5095000;28;20659;-73
2021/05/20 00:31:31;;;;;;;11.02;6.35;;;;;;;10.60;100.00;101129.19;5091671;28;20341;-73
2021/05/20 00:33:57;;;;;;;11.75;6.60;;;;;;;10.44;100.00;101131.03;5088367;28;20157;-73
2021/05/20 00:36:22;;;;;;;10.57;6.63;;;;;;;10.48;100.00;101131.91;5084216;28;20099;-73
2021/05/20 00:38:48;;;;;;;10.63;6.30;;;;;;;10.44;100.00;101141.78;5075265;28;20032;-73
2021/05/20 00:41:14;;;;;;;11.10;6.30;;;;;;;10.44;100.00;101139.09;5098174;28;20063;-73
2021/05/20 00:43:40;;;;;;;9.65;6.30;;;;;;;10.34;100.00;101138.78;5086770;28;20035;-73
2021/05/20 00:46:07;;;;;;;12.32;6.60;;;;;;;10.15;100.00;101136.69;5086092;28;20036;-73
2021/05/20 00:48:32;;;;;;;10.23;6.55;;;;;;;10.25;100.00;101133.53;5092039;28;20549;-73
2021/05/20 00:50:58;;;;;;;10.80;5.60;;;;;;;10.38;100.00;101136.97;5080111;28;20040;-73
2021/05/20 00:53:24;;;;;;;10.27;5.97;;;;;;;10.36;100.00;101136.53;5089733;28;20027;-73
2021/05/20 00:55:49;;;;;;;10.68;5.85;;;;;;;10.43;100.00;101142.13;5095073;28;20043;-73
2021/05/20 00:58:17;;;;;;;8.23;5.57;;;;;;;10.25;100.00;101144.31;5094841;28;20024;-73
2021/05/20 01:00:43;;;;;;;7.68;6.03;;;;;;;10.08;100.00;101147.22;5083529;28;20063;-73
2021/05/20 01:03:08;;;;;;;11.23;5.45;;;;;;;10.16;100.00;101143.66;5106973;28;20761;-73
2021/05/20 01:05:34;;;;;;;9.07;5.50;;;;;;;10.12;100.00;101150.84;5090134;28;20024;-73
2021/05/20 01:07:59;;;;;;;9.88;6.20;;;;;;;9.98;100.00;101155.75;5084347;28;20028;-73
2021/05/20 01:10:25;;;;;;;9.63;5.82;;;;;;;9.96;100.00;101156.09;5085128;28;20019;-73
2021/05/20 01:12:50;;;;;;;7.55;5.53;;;;;;;9.90;100.00;101148.59;5093129;28;20067;-73
2021/05/20 01:15:22;;;;;;;11.48;5.63;;;;;;;10.08;100.00;101155.31;5087744;28;20024;-73
2021/05/20 01:18:03;;;;;;;8.63;5.80;;;;;;;9.95;100.00;101161.81;5085844;28;20041;-73
2021/05/20 01:20:32;;;;;;;8.55;5.80;;;;;;;9.96;100.00;101171.44;5096124;28;20039;-73
2021/05/20 01:23:09;;;;;;;8.50;5.72;;;;;;;10.02;100.00;101168.22;5093328;28;20056;-73
2021/05/20 01:25:36;;;;;;;8.35;5.72;;;;;;;9.85;100.00;101170.34;5086444;28;20048;-73
2021/05/20 01:28:05;;;;;;;8.07;5.28;;;;;;;9.89;100.00;101173.94;5089638;28;20114;-74
2021/05/20 01:30:36;;;;;;;7.70;4.90;;;;;;;9.84;100.00;101172.25;5102758;28;20051;-73
2021/05/20 01:33:02;;;;;;;6.75;4.70;;;;;;;9.80;100.00;101178.63;5080393;28;20032;-73
2021/05/20 01:35:27;;;;;;;9.25;5.28;;;;;;;9.92;100.00;101182.09;5088940;28;20031;-73
2021/05/20 01:41:09;;;;;;;7.30;5.28;;;;;;;10.13;100.00;101184.69;5098312;28;20404;-73
2021/05/20 01:43:35;;;;;;;8.90;5.68;;;;;;;10.11;100.00;101196.91;5073944;28;20063;-73
2021/05/20 01:46:01;;;;;;;7.57;5.90;;;;;;;10.18;100.00;101189.84;5082863;28;20110;-73
2021/05/20 01:48:29;;;;;;;7.03;5.35;;;;;;;10.24;100.00;101199.25;5092369;28;20079;-73
2021/05/20 01:51:17;;;;;;;9.35;5.53;;;;;;;10.17;100.00;101193.66;5088332;28;20044;-73
2021/05/20 01:53:48;;;;;;;8.88;5.38;;;;;;;10.22;100.00;101193.41;5089014;28;20028;-73
2021/05/20 01:56:15;;;;;;;7.57;5.35;;;;;;;10.37;100.00;101192.75;5090966;28;20110;-73
2021/05/20 01:58:43;;;;;;;8.13;5.30;;;;;;;10.33;100.00;101191.06;5090576;28;20039;-73
2021/05/20 02:01:09;;;;;;;8.73;5.18;;;;;;;10.34;100.00;101192.63;5071159;28;20023;-73
2021/05/20 02:03:35;;;;;;;5.97;4.95;;;;;;;10.33;100.00;101185.69;5099665;28;20036;-73
2021/05/20 02:06:02;;;;;;;7.07;4.50;;;;;;;10.30;100.00;101189.06;5090920;28;20032;-73
2021/05/20 02:08:33;;;;;;;6.70;4.43;;;;;;;10.46;100.00;101184.53;5085916;28;20028;-73
2021/05/20 02:10:58;;;;;;;8.27;3.97;;;;;;;10.37;100.00;101189.25;5091952;28;20622;-73
2021/05/20 02:13:25;;;;;;;5.82;4.00;;;;;;;10.46;100.00;101189.91;5088619;28;20046;-73
2021/05/20 02:15:50;;;;;;;6.93;4.25;;;;;;;10.41;100.00;101190.94;5092816;28;20055;-73
2021/05/20 02:18:16;;;;;;;5.70;4.95;;;;;;;10.56;100.00;101189.44;5082910;28;20035;-73
2021/05/20 02:20:42;;;;;;;6.55;3.90;;;;;;;10.66;100.00;101188.97;5096384;28;20032;-73
2021/05/20 02:23:07;;;;;;;8.35;4.22;;;;;;;10.65;100.00;101190.06;5090585;28;20462;-73
2021/05/20 02:25:33;;;;;;;4.75;4.00;;;;;;;10.70;100.00;101187.91;5084675;23;20139;-74
2021/05/20 02:27:59;;;;;;;3.60;3.30;;;;;;;10.57;100.00;101183.72;5068909;28;20462;-75
2021/05/20 02:30:26;;;;;;;5.88;4.18;;;;;;;10.74;100.00;101186.13;5077158;28;20028;-74
2021/05/20 02:32:51;;;;;;;6.25;3.95;;;;;;;10.58;100.00;101190.66;5062440;28;20492;-74
2021/05/20 02:35:17;;;;;;;5.40;3.42;;;;;;;10.65;100.00;101185.47;5078827;28;20036;-74
2021/05/20 02:37:45;;;;;;;5.32;3.88;;;;;;;10.72;100.00;101196.44;5070045;28;20047;-74
2021/05/20 02:40:11;;;;;;;5.63;3.65;;;;;;;10.67;100.00;101194.00;5069849;28;20032;-74
2021/05/20 02:42:39;;;;;;;6.65;3.75;;;;;;;10.65;100.00;101190.88;5066210;28;20029;-75
2021/05/20 02:45:07;;;;;;;4.75;3.65;;;;;;;10.55;100.00;101198.66;5069617;28;20047;-74
2021/05/20 02:47:34;;;;;;;5.50;3.60;;;;;;;10.50;100.00;101194.28;5067480;28;20021;-74
2021/05/20 02:49:59;;;;;;;4.72;3.40;;;;;;;10.51;100.00;101195.06;5062396;28;20473;-74
2021/05/20 02:52:25;;;;;;;5.25;3.42;;;;;;;10.49;100.00;101200.00;5068397;28;20043;-74
2021/05/20 02:54:50;;;;;;;5.63;3.83;;;;;;;10.42;100.00;101195.19;5067605;28;20024;-74
2021/05/20 02:57:15;;;;;;;5.30;3.95;;;;;;;10.33;100.00;101186.47;5069478;28;20800;-74
2021/05/20 02:59:41;;;;;;;7.40;4.20;;;;;;;10.53;99.45;101190.13;5070358;28;20048;-74
2021/05/20 03:02:07;;;;;;;7.43;4.28;;;;;;;10.33;99.97;101194.53;5063060;28;20048;-74
2021/05/20 03:04:37;;;;;;;4.68;4.00;;;;;;;10.14;100.00;101193.56;5074915;28;20037;-74
2021/05/20 03:07:05;;;;;;;5.28;4.18;;;;;;;10.12;100.00;101198.50;5076809;28;20044;-75
2021/05/20 03:09:30;;;;;;;6.90;4.13;;;;;;;9.94;100.00;101196.00;5074421;28;20095;-74
2021/05/20 03:11:59;;;;;;;5.38;4.25;;;;;;;9.90;100.00;101195.13;5077128;28;20166;-75
2021/05/20 03:14:25;;;;;;;5.60;3.78;;;;;;;9.92;100.00;101186.69;5066332;28;20024;-75
2021/05/20 03:16:52;;;;;;;5.75;4.00;;;;;;;9.97;100.00;101192.63;5068802;28;20511;-75
2021/05/20 03:19:17;;;;;;;6.90;4.38;;;;;;;10.01;100.00;101193.53;5072474;28;20034;-74
2021/05/20 03:21:43;;;;;;;7.03;4.20;;;;;;;9.97;100.00;101205.28;5069970;28;20119;-74
2021/05/20 03:24:09;;;;;;;6.35;4.57;;;;;;;10.10;100.00;101198.84;5067819;28;20056;-74
2021/05/20 03:26:35;;;;;;;6.70;4.05;;;;;;;10.15;100.00;101201.28;5068188;28;20036;-74
2021/05/20 03:29:00;;;;;;;7.95;4.18;;;;;;;10.16;100.00;101189.41;5059357;28;20492;-74
2021/05/20 03:31:26;;;;;;;6.38;3.97;;;;;;;10.07;100.00;101196.78;5061656;28;20044;-74
2021/05/20 03:33:52;;;;;;;6.15;3.97;;;;;;;10.02;100.00;101194.31;5064191;28;20142;-74
2021/05/20 03:36:18;;;;;;;5.35;4.10;;;;;;;10.07;100.00;101202.16;5069825;28;20077;-75
2021/05/20 03:38:44;;;;;;;4.72;3.80;;;;;;;10.20;100.00;101201.03;5071088;28;20506;-74
2021/05/20 03:41:09;;;;;;;6.00;3.97;;;;;;;10.31;100.00;101199.47;5063285;28;20042;-74
2021/05/20 03:43:35;;;;;;;6.13;4.32;;;;;;;10.33;100.00;101202.63;5072921;28;20036;-73
2021/05/20 03:46:01;;;;;;;6.47;4.03;;;;;;;10.31;100.00;101198.69;5068155;28;20110;-74
2021/05/20 03:48:26;;;;;;;7.00;4.40;;;;;;;10.38;100.00;101197.00;5062152;28;20021;-74
2021/05/20 03:50:54;;;;;;;5.90;4.43;;;;;;;10.46;100.00;101203.38;5063951;28;20567;-74
2021/05/20 03:53:19;;;;;;;10.30;4.13;;;;;;;10.54;100.00;101205.94;5056608;28;20401;-74
2021/05/20 03:55:47;;;;;;;5.75;4.72;;;;;;;10.52;100.00;101208.19;5067080;28;20028;-74
2021/05/20 03:58:13;;;;;;;6.88;4.25;;;;;;;10.51;100.00;101203.91;5073847;28;20066;-74
2021/05/20 04:00:38;;;;;;;6.70;3.83;;;;;;;10.71;100.00;101208.34;5065444;28;20436;-75
2021/05/20 04:03:04;;;;;;;6.00;4.38;;;;;;;10.78;100.00;101205.84;5069814;28;20016;-74
2021/05/20 04:05:29;;;;;;;6.15;4.10;;;;;;;10.83;100.00;101204.84;5069047;28;20043;-74
2021/05/20 04:07:55;;;;;;;5.65;4.45;;;;;;;10.75;100.00;101206.56;5068640;28;20051;-74
2021/05/20 04:10:20;;;;;;;5.38;4.15;;;;;;;10.65;100.00;101204.34;5073929;28;20107;-74
2021/05/20 04:12:46;;;;;;;13.30;4.45;;;;;;;10.78;100.00;101207.78;5070110;28;20397;-74
2021/05/20 04:15:12;;;;;;;7.15;4.43;;;;;;;10.82;100.00;101214.81;5069523;28;20028;-75
2021/05/20 04:17:37;;;;;;;5.32;4.25;;;;;;;10.81;100.00;101202.50;5066263;28;20434;-75
2021/05/20 04:20:04;;;;;;;6.75;4.60;;;;;;;10.71;100.00;101205.66;5069807;28;20036;-74
2021/05/20 04:22:29;;;;;;;7.28;4.63;;;;;;;11.03;100.00;101209.25;5067217;28;20036;-74
2021/05/20 04:24:55;;;;;;;6.90;4.47;;;;;;;10.86;100.00;101210.31;5069142;28;20094;-74
2021/05/20 04:27:20;;;;;;;5.53;4.38;;;;;;;10.67;100.00;101210.16;5073783;28;20040;-74
2021/05/20 04:29:46;;;;;;;7.05;4.75;;;;;;;10.61;100.00;101200.75;5069160;28;20063;-75
2021/05/20 04:32:11;;;;;;;8.40;4.90;;;;;;;10.66;100.00;101205.13;5068173;28;20028;-74
2021/05/20 04:34:37;;;;;;;8.80;5.75;;;;;;;10.61;100.00;101206.13;5068167;28;20480;-75
2021/05/20 04:37:07;;;;;;;9.57;5.03;;;;;;;10.62;100.00;101217.69;5073478;28;20060;-75
2021/05/20 04:39:33;;;;;;;8.85;5.60;;;;;;;10.64;100.00;101212.75;5066725;28;20124;-74
2021/05/20 04:41:58;;;;;;;8.82;6.15;;;;;;;10.71;100.00;101215.66;5060494;28;20040;-74
2021/05/20 04:44:24;;;;;;;12.65;6.32;;;;;;;10.71;100.00;101215.66;5064463;28;20036;-74
2021/05/20 04:46:49;;;;;;;9.30;6.28;;;;;;;11.00;100.00;101217.22;5063118;28;20709;-74
2021/05/20 04:49:15;;;;;;;8.70;6.18;;;;;;;10.94;100.00;101215.94;5070740;28;20028;-74
2021/05/20 04:51:43;;;;;;;11.60;5.85;;;;;;;10.97;100.00;101224.09;5072892;28;20111;-75
2021/05/20 04:54:09;;;;;;;8.75;6.20;;;;;;;11.21;100.00;101223.19;5061403;28;20081;-74
2021/05/20 04:56:35;;;;;;;10.38;6.88;;;;;;;11.18;100.00;101235.47;5069069;28;20032;-74
2021/05/20 04:59:02;;;;;;;9.90;6.90;;;;;;;11.28;100.00;101234.19;5076308;28;20522;-74
2021/05/20 05:01:27;;;;;;;10.15;6.97;;;;;;;11.24;100.00;101236.00;5075489;28;20036;-74
2021/05/20 05:03:53;;;;;;;15.35;7.40;;;;;;;11.35;100.00;101237.06;5081798;28;20066;-74
2021/05/20 05:06:18;;;;;;;15.50;6.75;;;;;;;11.53;100.00;101230.22;5064810;28;20028;-74
2021/05/20 05:08:44;;;;;;;10.88;6.90;;;;;;;11.80;99.75;101232.09;5076185;28;20043;-74
2021/05/20 05:11:09;;;;;;;10.57;6.75;;;;;;;12.12;97.91;101236.34;5079401;28;20112;-75
2021/05/20 05:13:35;;;;;;;9.00;6.13;;;;;;;12.27;97.04;101240.94;5070684;28;20037;-74
2021/05/20 05:16:01;;;;;;;10.75;6.93;;;;;;;12.25;96.44;101239.72;5065852;28;20606;-74
2021/05/20 05:18:26;;;;;;;11.30;6.90;;;;;;;12.08;96.64;101238.16;5066932;28;20034;-74
2021/05/20 05:20:52;;;;;;;11.05;6.97;;;;;;;12.03;98.13;101238.44;5067834;28;20043;-74
2021/05/20 05:23:18;;;;;;;11.93;6.95;;;;;;;12.18;97.50;101244.94;5071331;28;21506;-74
2021/05/20 05:25:47;;;;;;;11.88;7.70;;;;;;;12.18;96.79;101237.63;5067651;28;20036;-74
2021/05/20 05:28:13;;;;;;;13.00;7.22;;;;;;;12.18;97.23;101250.34;5069886;28;20488;-74
2021/05/20 05:30:38;;;;;;;15.95;7.60;;;;;;;12.34;95.78;101243.81;5071208;28;20071;-74
2021/05/20 05:33:04;;;;;;;12.95;7.63;;;;;;;12.12;96.29;101251.75;5076856;28;20389;-74
2021/05/20 05:35:30;;;;;;;14.27;7.13;;;;;;;12.21;97.06;101247.75;5071583;28;20107;-74
2021/05/20 05:37:55;;;;;;;13.95;7.80;;;;;;;12.40;95.85;101250.50;5060868;28;20039;-74
2021/05/20 05:40:21;;;;;;;15.35;7.80;;;;;;;12.44;95.92;101253.28;5060756;28;20024;-74
2021/05/20 05:42:46;;;;;;;12.93;7.78;;;;;;;12.53;95.75;101256.56;5074999;28;20594;-75
2021/05/20 05:45:12;;;;;;;12.98;7.32;;;;;;;12.32;96.83;101250.69;5062540;28;20036;-73
2021/05/20 05:47:37;;;;;;;14.70;7.70;;;;;;;12.28;97.59;101253.31;5063027;28;20501;-74
2021/05/20 05:50:10;;;;;;;10.48;7.22;;;;;;;12.18;97.92;101256.53;5062578;28;20210;-74
2021/05/20 05:52:36;;;;;;;15.80;7.38;;;;;;;12.22;99.64;101251.22;5063893;28;20033;-73
2021/05/20 05:55:03;;;;;;;11.80;8.00;;;;;;;12.39;97.62;101248.94;5059785;28;20031;-73
2021/05/20 05:57:28;;;;;;;12.07;7.88;;;;;;;12.56;96.70;101245.06;5063863;28;20089;-74
2021/05/20 05:59:53;;;;;;;11.13;7.30;;;;;;;12.44;96.16;101250.59;5064607;28;20120;-74
2021/05/20 06:02:22;;;;;;;14.98;8.23;;;;;;;12.57;96.38;101257.44;5062324;28;20397;-74
2021/05/20 06:04:49;;;;;;;15.77;7.65;;;;;;;12.49;95.18;101259.19;5052546;28;20032;-73
2021/05/20 06:07:14;;;;;;;16.05;7.80;;;;;;;12.26;96.79;101260.19;5057172;28;20033;-74
2021/05/20 06:09:40;;;;;;;12.98;7.57;;;;;;;12.57;95.44;101254.72;5055088;28;20044;-74
2021/05/20 06:12:06;;;;;;;17.75;8.98;;;;;;;12.57;95.20;101260.91;5058506;28;20097;-75
2021/05/20 06:14:31;;;;;;;16.70;7.90;;;;;;;12.72;94.47;101256.59;5053919;28;20511;-75
2021/05/20 06:16:57;;;;;;;12.40;8.10;;;;;;;12.57;94.88;101263.63;5056440;28;20028;-74
2021/05/20 06:19:22;;;;;;;12.50;8.23;;;;;;;12.64;94.41;101263.78;5058571;28;20040;-74
2021/05/20 06:21:48;;;;;;;16.17;8.38;;;;;;;12.47;95.80;101264.16;5060606;28;20400;-75
2021/05/20 06:24:13;;;;;;;15.60;8.68;;;;;;;12.59;95.56;101266.75;5061885;28;20392;-74
2021/05/20 06:26:39;;;;;;;17.13;8.65;;;;;;;12.51;95.13;101270.44;5062979;28;20078;-74
2021/05/20 06:29:04;;;;;;;13.88;8.77;;;;;;;12.56;96.09;101278.25;5060518;28;20488;-74
2021/05/20 06:31:30;;;;;;;14.85;8.25;;;;;;;12.58;96.63;101269.81;5058509;28;20435;-74
2021/05/20 06:33:56;;;;;;;12.68;8.68;;;;;;;12.72;96.28;101270.09;5061475;28;20028;-74
2021/05/20 06:36:23;;;;;;;12.80;7.45;;;;;;;12.93;95.68;101267.09;5064437;28;20103;-73
2021/05/20 06:38:49;;;;;;;15.05;8.63;;;;;;;13.01;94.96;101269.56;5061916;28;20028;-73
2021/05/20 06:41:14;;;;;;;12.88;8.55;;;;;;;13.13;94.43;101276.78;5058823;28;20496;-74
2021/05/20 06:43:40;;;;;;;13.15;8.38;;;;;;;13.22;93.33;101278.13;5069016;28;20111;-74
2021/05/20 06:46:06;;;;;;;15.40;8.65;;;;;;;13.14;94.35;101278.38;5058233;28;20043;-74
2021/05/20 06:48:33;;;;;;;15.70;8.55;;;;;;;13.38;93.61;101275.34;5062604;28;20036;-74
2021/05/20 06:50:59;;;;;;;14.25;8.30;;;;;;;13.62;93.38;101275.03;5059408;28;20021;-74
2021/05/20 06:53:25;;;;;;;10.63;6.30;;;;;;;13.77;90.71;101279.53;5065202;28;20033;-74
2021/05/20 06:55:56;;;;;;;9.73;6.70;;;;;;;14.00;89.64;101280.31;5060565;28;20424;-75
2021/05/20 07:01:05;;;;;;;11.60;6.50;;;;;;;14.24;85.47;101279.94;5064714;28;20051;-74
2021/05/20 07:03:31;;;;;;;10.43;6.53;;;;;;;14.07;86.50;101285.09;5061926;28;20025;-74
2021/05/20 07:05:56;;;;;;;8.95;6.18;;;;;;;14.02;86.94;101280.75;5061897;28;20085;-75
2021/05/20 07:08:22;;;;;;;7.78;5.47;;;;;;;14.02;87.14;101278.03;5062458;28;20054;-75
2021/05/20 07:10:47;;;;;;;8.75;5.85;;;;;;;14.08;87.22;101290.13;5059507;28;20399;-75
2021/05/20 07:13:13;;;;;;;10.35;6.38;;;;;;;14.14;85.73;101280.56;5066208;28;20058;-74
2021/05/20 07:15:38;;;;;;;9.40;6.00;;;;;;;14.01;86.00;101287.31;5067316;28;20044;-75
2021/05/20 07:18:04;;;;;;;13.73;6.60;;;;;;;14.03;86.77;101287.72;5067368;28;20039;-75
2021/05/20 07:20:30;;;;;;;10.27;5.70;;;;;;;14.15;86.73;101295.66;5062001;28;20033;-74
2021/05/20 07:22:55;;;;;;;10.73;6.25;;;;;;;14.16;86.65;101288.31;5057643;28;20028;-75
2021/05/20 07:25:21;;;;;;;9.10;5.43;;;;;;;14.21;85.51;101293.41;5049916;28;20045;-74
2021/05/20 07:27:46;;;;;;;6.18;4.88;;;;;;;14.46;84.90;101291.91;5051078;28;20037;-74
2021/05/20 07:30:12;;;;;;;8.63;5.63;;;;;;;14.83;84.14;101278.47;5059357;28;20029;-74
2021/05/20 07:32:38;;;;;;;8.15;5.40;;;;;;;14.97;84.00;101279.44;5064397;28;20025;-74
2021/05/20 07:35:06;;;;;;;8.70;5.20;;;;;;;15.59;81.65;101277.84;5059569;28;20490;-74
2021/05/20 07:37:31;;;;;;;6.28;5.13;;;;;;;15.89;77.71;101277.75;5054346;28;20024;-74
2021/05/20 07:39:57;;;;;;;9.07;4.43;;;;;;;15.89;77.19;101283.94;5049466;28;20516;-75
2021/05/20 07:42:22;;;;;;;5.03;3.80;;;;;;;15.76;76.19;101281.88;5054069;28;20413;-75
2021/05/20 07:44:53;;;;;;;8.65;4.05;;;;;;;15.81;76.94;101282.34;5052448;28;20033;-74
2021/05/20 07:47:18;;;;;;;6.95;4.15;;;;;;;15.69;75.00;101281.84;5056294;28;20060;-74
2021/05/20 07:49:44;;;;;;;9.20;5.28;;;;;;;15.25;76.81;101284.44;5062924;28;20060;-74
2021/05/20 07:52:09;;;;;;;6.57;5.05;;;;;;;15.50;77.52;101284.75;5059523;28;20672;-73
2021/05/20 07:54:35;;;;;;;8.48;5.03;;;;;;;15.90;76.70;101280.09;5062909;28;20032;-75
2021/05/20 07:57:01;;;;;;;9.43;4.90;;;;;;;16.35;76.18;101278.13;5066283;28;20036;-75
2021/05/20 07:59:26;;;;;;;5.00;4.20;;;;;;;16.74;74.71;101273.72;5066296;28;20036;-74
2021/05/20 08:02:01;;;;;;;6.03;3.58;;;;;;;17.01;72.25;101264.13;5065834;28;20039;-73
2021/05/20 08:04:29;;;;;;;7.70;3.75;;;;;;;17.38;70.50;101267.34;5066392;28;20047;-76
2021/05/20 08:06:59;;;;;;;5.95;3.75;;;;;;;17.85;67.30;101275.25;5066857;28;20037;-74
2021/05/20 08:09:33;;;;;;;8.50;3.75;;;;;;;18.13;65.44;101276.41;5074377;28;20054;-73
2021/05/20 08:11:59;;;;;;;8.82;3.70;;;;;;;18.36;63.62;101279.50;5062927;28;20155;-76
2021/05/20 08:14:25;;;;;;;8.05;4.05;;;;;;;18.12;64.04;101275.63;5066855;28;20068;-77
2021/05/20 08:16:50;;;;;;;6.82;3.90;;;;;;;17.73;64.76;101280.31;5069523;28;20034;-76
2021/05/20 08:19:16;;;;;;;6.20;4.15;;;;;;;16.66;69.47;101283.00;5068719;28;20571;-75
2021/05/20 08:21:43;;;;;;;8.05;4.00;;;;;;;16.92;68.91;101272.63;5064378;28;20074;-75
2021/05/20 08:24:09;;;;;;;6.30;3.83;;;;;;;17.24;69.35;101263.81;5068230;28;20532;-75
2021/05/20 08:26:34;;;;;;;6.60;3.08;;;;;;;17.81;64.82;101269.00;5060512;22;20049;-74
2021/05/20 08:29:00;;;;;;;4.20;2.78;;;;;;;18.42;63.45;101269.75;5049377;28;20066;-74
2021/05/20 08:31:26;;;;;;;5.38;3.25;;;;;;;18.44;60.19;101257.31;5039379;28;20550;-74
2021/05/20 08:33:52;;;;;;;4.18;2.72;;;;;;;18.57;60.00;101265.84;5044046;28;20454;-73
2021/05/20 08:36:17;;;;;;;4.65;2.72;;;;;;;18.40;59.39;101267.44;5036499;28;20115;-74
2021/05/20 08:38:43;;;;;;;4.35;2.55;;;;;;;17.78;60.76;101267.06;5032785;28;20029;-74
2021/05/20 08:41:09;;;;;;;5.18;2.83;;;;;;;17.14;61.93;101270.78;5026749;28;20029;-74
2021/05/20 08:43:35;;;;;;;4.95;2.80;;;;;;;17.21;63.15;101262.63;5027978;28;20397;-74
2021/05/20 08:46:00;;;;;;;3.55;2.42;;;;;;;17.08;61.70;101269.59;5028674;28;20041;-74
2021/05/20 08:48:26;;;;;;;7.10;2.90;;;;;;;17.04;64.46;101266.06;5031781;28;20040;-73
2021/05/20 08:50:51;;;;;;;4.70;3.17;;;;;;;17.51;66.02;101270.53;5027092;28;20041;-73
2021/05/20 08:53:17;;;;;;;3.25;2.85;;;;;;;17.70;65.13;101260.06;5030992;28;20101;-74
2021/05/20 08:55:43;;;;;;;3.72;2.90;;;;;;;18.10;61.77;101263.59;5028831;28;20056;-74
2021/05/20 08:58:10;;;;;;;4.28;2.60;;;;;;;18.20;60.77;101263.56;5027618;28;20034;-73
2021/05/20 09:00:37;;;;;;;3.05;2.25;;;;;;;18.14;62.87;101256.19;5028939;28;20030;-74
2021/05/20 09:03:13;;;;;;;6.68;2.42;;;;;;;18.27;60.87;101252.66;5024956;28;20049;-73
2021/05/20 09:05:41;;;;;;;4.50;2.17;;;;;;;18.22;60.64;101260.44;5025167;28;20037;-73
2021/05/20 09:08:15;;;;;;;2.70;2.30;;;;;;;18.10;59.85;101252.69;5028941;28;20482;-73
2021/05/20 09:10:43;;;;;;;7.20;2.20;;;;;;;17.87;60.61;101256.56;5030277;28;20032;-73
2021/05/20 09:13:13;;;;;;;3.58;2.10;;;;;;;18.13;60.54;101246.44;5024188;28;20683;-74
2021/05/20 09:15:45;;;;;;;2.85;1.83;;;;;;;18.44;59.78;101238.25;5036237;28;20033;-73
2021/05/20 09:18:24;;;;;;;1.77;1.67;;;;;;;19.00;57.73;101233.75;5027419;28;20116;-74
2021/05/20 09:20:56;;;;;;;2.65;2.08;;;;;;;19.43;57.08;101246.03;5027473;28;20037;-74
2021/05/20 09:23:24;;;;;;;4.10;1.90;;;;;;;19.64;56.85;101240.41;5025331;28;20029;-74
2021/05/20 09:25:51;;;;;;;6.38;1.90;;;;;;;19.73;55.37;101238.00;5028463;28;20039;-74
2021/05/20 09:28:34;;;;;;;3.30;1.70;;;;;;;19.41;54.88;101251.09;5028867;28;20103;-74
2021/05/20 09:31:00;;;;;;;2.75;1.90;;;;;;;19.20;54.67;101249.22;5041788;28;20409;-73
2021/05/20 09:33:26;;;;;;;2.35;2.10;;;;;;;18.91;55.22;101251.31;5023259;28;20037;-73
2021/05/20 09:35:52;;;;;;;3.65;2.03;;;;;;;18.66;55.86;101242.44;5028954;28;20037;-73
2021/05/20 09:38:22;;;;;;;2.15;1.50;;;;;;;18.57;56.62;101238.56;5027128;28;20037;-73
2021/05/20 09:40:58;;;;;;;4.78;1.80;;;;;;;18.47;57.19;101248.34;5030608;28;20041;-73
2021/05/20 09:43:35;;;;;;;2.70;1.80;;;;;;;18.72;57.63;101238.13;5027731;28;20393;-74
2021/05/20 09:46:10;;;;;;;6.65;2.10;;;;;;;18.80;58.00;101242.41;5031921;28;20481;-73
2021/05/20 09:48:37;;;;;;;2.58;1.80;;;;;;;18.73;57.19;101250.63;5031722;28;20041;-73
2021/05/20 09:51:05;;;;;;;5.70;2.00;;;;;;;18.50;56.47;101246.78;5024373;28;20037;-74
2021/05/20 09:53:42;;;;;;;3.55;1.95;;;;;;;18.03;60.66;101248.00;5033053;28;20072;-74
2021/05/20 09:56:09;;;;;;;3.53;1.63;;;;;;;18.47;57.70;101236.66;5027163;28;20029;-73
2021/05/20 09:58:35;;;;;;;2.75;1.65;;;;;;;18.96;56.85;101232.97;5017035;28;20120;-74
2021/05/20 10:01:02;;;;;;;3.25;1.27;;;;;;;19.66;55.47;101233.38;5029802;28;20553;-74
2021/05/20 10:03:28;;;;;;;3.65;1.58;;;;;;;20.32;53.02;101231.25;5032203;28;20069;-73
2021/05/20 10:06:00;;;;;;;3.28;1.45;;;;;;;20.41;52.24;101228.81;5031834;28;20029;-73
2021/05/20 10:08:26;;;;;;;;;;;;;;;19.95;51.58;101224.94;5029069;28;20041;-74
2021/05/20 10:10:54;;;;;;;2.53;1.48;;;;;;;19.68;52.28;101224.75;5028590;28;19921;-73
2021/05/20 10:13:21;;;;;;;3.92;1.77;;;;;;;19.63;52.73;101225.97;5033002;28;20433;-72
2021/05/20 10:15:47;;;;;;;1.88;1.60;;;;;;;19.20;53.56;101232.84;5028624;28;20049;-73
2021/05/20 10:18:17;;;;;;;2.58;1.40;;;;;;;18.88;55.16;101233.00;5028520;28;20059;-72
2021/05/20 10:20:45;;;;;;;4.10;1.50;;;;;;;18.64;55.47;101228.41;5027890;28;20508;-72
2021/05/20 10:23:15;;;;;;;2.53;1.42;;;;;;;18.28;56.82;101234.31;5043110;28;20044;-72
2021/05/20 10:25:42;;;;;;;5.32;1.75;;;;;;;18.22;60.17;101238.63;5025389;28;20112;-73
2021/05/20 10:28:09;;;;;;;2.97;1.88;;;;;;;17.90;64.68;101233.97;5027537;28;20037;-73
2021/05/20 10:30:36;;;;;;;3.20;1.80;;;;;;;17.64;66.27;101226.19;5024067;28;20037;-73
2021/05/20 10:33:02;;;;;;;5.35;2.40;;;;;;;17.71;67.70;101231.63;5029330;28;20094;-73
2021/05/20 10:35:53;;;;;;;2.95;2.15;;;;;;;17.79;67.44;101230.47;5030282;28;20025;-73
2021/05/20 10:38:24;;;;;;;4.97;1.90;;;;;;;17.51;66.94;101224.22;5022209;28;20057;-72
2021/05/20 10:40:50;;;;;;;6.28;1.95;;;;;;;17.49;67.58;101219.19;5029217;28;20523;-72
2021/05/20 10:43:18;;;;;;;3.53;2.17;;;;;;;17.35;70.28;101212.88;5031314;28;20128;-73
2021/05/20 10:46:13;;;;;;;3.65;2.28;;;;;;;17.63;68.83;101221.91;5026730;28;20033;-73
2021/05/20 10:48:52;;;;;;;2.03;1.88;;;;;;;17.90;67.84;101216.84;5035080;28;20049;-72
2021/05/20 10:51:20;;;;;;;5.07;2.17;;;;;;;18.40;66.10;101209.38;5025356;28;20039;-73
2021/05/20 10:54:05;;;;;;;4.18;2.30;;;;;;;18.67;64.69;101207.75;5037556;28;20024;-73
2021/05/20 10:56:31;;;;;;;5.18;2.28;;;;;;;18.81;65.51;101233.03;5040950;28;20037;-73
2021/05/20 10:58:58;;;;;;;4.05;2.30;;;;;;;18.85;67.39;101230.31;5029478;28;20394;-72
2021/05/20 11:01:24;;;;;;;3.78;2.30;;;;;;;18.56;67.54;101220.66;5030903;28;20037;-73
2021/05/20 11:03:59;;;;;;;4.13;2.30;;;;;;;17.64;74.65;101218.00;5022694;28;20029;-72
2021/05/20 11:06:46;;;;;;;5.07;2.53;;;;;;;17.60;77.39;101222.69;5028165;28;20060;-72
2021/05/20 11:09:12;;;;;;;3.90;2.33;;;;;;;17.55;77.32;101203.22;5025744;28;20072;-74
2021/05/20 11:11:38;;;;;;;7.00;2.53;;;;;;;17.49;77.80;101202.84;5020918;28;20041;-72
2021/05/20 11:14:14;;;;;;;4.82;2.58;;;;;;;17.77;79.35;101196.59;5024777;28;20068;-72
2021/05/20 11:16:41;;;;;;;4.85;2.38;;;;;;;18.33;80.69;101191.06;5029274;28;20041;-72
2021/05/20 11:19:25;;;;;;;4.35;2.50;;;;;;;19.14;75.12;101181.78;5022322;28;20029;-74
2021/05/20 11:24:25;;;;;;;4.32;2.92;;;;;;;20.22;66.98;101180.16;5025454;28;20032;-72
2021/05/20 11:26:52;;;;;;;3.97;2.58;;;;;;;20.38;66.57;101179.59;5019830;28;20053;-72
2021/05/20 11:29:22;;;;;;;2.35;2.15;;;;;;;20.59;62.13;101176.59;5029701;28;20497;-73